Time;durP1;ratioP1;P1;durP2;ratioP2;P2;SDS_P1;SDS_P2;PMS_P1;PMS_P2;Temp;Humidity;BMP_temperature;BMP_pressure;BME280_temperature;BME280_humidity;BME280_pressure;Samples;Min_cycle;Max_cycle;Signal;HPM_P1;HPM_P2
2021/05/23 00:01:41;;;;;;;;;6.00;6.00;;;;;16.00;51.41;98451.22;6214173;28;126081;-68
2021/05/23 00:04:44;;;;;;;;;5.00;5.00;;;;;15.99;51.12;98472.16;6238820;27;125584;-68
2021/05/23 00:07:53;;;;;;;;;6.00;5.00;;;;;15.98;51.19;98448.75;6228923;27;124085;-68
2021/05/23 00:10:59;;;;;;;;;5.00;5.00;;;;;15.99;51.19;98441.44;6221628;28;125921;-67
2021/05/23 00:14:03;;;;;;;;;4.20;4.00;;;;;15.99;51.14;98447.69;6238709;27;125980;-67
2021/05/23 00:17:06;;;;;;;;;6.00;6.00;;;;;15.97;51.23;98433.56;6236662;28;124846;-67
2021/05/23 00:20:10;;;;;;;;;6.00;6.00;;;;;15.98;50.88;98439.78;6238486;27;124996;-67
2021/05/23 00:23:13;;;;;;;;;5.40;5.00;;;;;15.95;50.78;98437.63;6238390;27;126348;-67
2021/05/23 00:26:16;;;;;;;;;7.00;6.00;;;;;15.89;50.73;98433.22;6238632;27;125360;-67
2021/05/23 00:29:20;;;;;;;;;6.00;5.00;;;;;15.92;50.30;98443.59;6232409;27;126927;-67
2021/05/23 00:32:23;;;;;;;;;5.00;4.00;;;;;15.90;50.51;98443.84;6235001;28;124819;-69
2021/05/23 00:35:25;;;;;;;;;5.50;4.50;;;;;15.91;49.98;98442.78;6236679;28;126370;-68
2021/05/23 00:38:28;;;;;;;;;4.00;4.00;;;;;15.88;50.22;98445.22;6224779;27;124511;-68
2021/05/23 00:41:31;;;;;;;;;5.00;5.00;;;;;15.86;50.21;98444.66;6213333;28;126388;-68
2021/05/23 00:44:34;;;;;;;;;5.00;5.00;;;;;15.81;50.45;98436.47;6228738;28;125722;-69
2021/05/23 00:47:38;;;;;;;;;5.00;5.00;;;;;15.79;50.53;98435.91;6219512;28;124590;-69
2021/05/23 00:50:42;;;;;;;;;6.40;6.00;;;;;15.79;50.21;98441.34;6236372;28;123581;-69
2021/05/23 00:53:45;;;;;;;;;5.60;5.00;;;;;15.77;49.94;98440.81;6236926;27;123211;-68
2021/05/23 00:56:48;;;;;;;;;7.00;7.00;;;;;15.71;49.91;98431.81;6229350;27;126093;-68
2021/05/23 00:59:52;;;;;;;;;5.40;5.00;;;;;15.66;50.09;98431.81;6229165;27;126776;-68
2021/05/23 01:03:00;;;;;;;;;5.00;5.00;;;;;15.63;50.06;98429.63;6215322;28;126271;-68
2021/05/23 01:06:05;;;;;;;;;4.20;4.00;;;;;15.62;50.09;98425.28;6212823;28;124528;-68
2021/05/23 01:09:09;;;;;;;;;7.00;5.00;;;;;15.62;50.02;98417.13;6231427;28;126007;-68
2021/05/23 01:12:36;;;;;;;;;4.00;4.00;;;;;15.58;50.23;98419.56;6227960;27;124416;-68
2021/05/23 01:15:46;;;;;;;;;5.25;4.00;;;;;15.57;49.99;98420.63;6212736;28;124940;-68
2021/05/23 01:18:55;;;;;;;;;4.00;4.00;;;;;15.62;49.39;98427.97;6235704;28;125837;-68
2021/05/23 01:22:04;;;;;;;;;4.60;4.60;;;;;15.73;49.17;98428.84;6238033;27;125727;-67
2021/05/23 01:25:14;;;;;;;;;4.00;4.00;;;;;15.76;48.88;98414.72;6237875;27;125705;-67
2021/05/23 01:28:18;;;;;;;;;5.00;5.00;;;;;15.81;48.74;98428.31;6217332;27;125301;-68
2021/05/23 01:31:24;;;;;;;;;5.00;3.20;;;;;15.97;48.25;98427.31;6211147;28;126537;-67
2021/05/23 01:34:28;;;;;;;;;4.00;3.25;;;;;16.07;48.20;98421.06;6212633;28;126002;-67
2021/05/23 01:37:32;;;;;;;;;5.00;5.00;;;;;16.14;47.85;98432.50;6221827;28;126144;-68
2021/05/23 01:40:36;;;;;;;;;3.00;3.00;;;;;16.20;47.44;98429.53;6236992;27;125174;-67
2021/05/23 01:43:39;;;;;;;;;4.00;4.00;;;;;16.25;47.55;98424.09;6237617;27;126309;-68
2021/05/23 01:46:42;;;;;;;;;4.00;4.00;;;;;16.32;47.41;98421.13;6235539;28;127378;-67
2021/05/23 01:49:46;;;;;;;;;4.40;4.40;;;;;16.39;47.13;98429.81;6235413;28;125545;-69
2021/05/23 01:52:51;;;;;;;;;3.75;3.50;;;;;16.37;46.96;98421.13;6235364;28;126506;-68
2021/05/23 01:55:55;;;;;;;;;5.00;4.00;;;;;16.46;46.90;98428.50;6233785;27;125830;-68
2021/05/23 01:58:58;;;;;;;;;3.00;3.00;;;;;16.46;46.81;98431.22;6215369;27;124817;-68
2021/05/23 02:02:01;;;;;;;;;3.40;3.00;;;;;16.50;46.77;98431.47;6211565;28;125674;-68
2021/05/23 02:05:06;;;;;;;;;2.60;2.60;;;;;16.52;46.61;98433.94;6227591;28;125845;-68
2021/05/23 02:08:09;;;;;;;;;4.00;3.00;;;;;16.54;46.60;98443.44;6224654;28;125864;-68
2021/05/23 02:11:13;;;;;;;;;4.80;4.40;;;;;16.57;46.58;98440.16;6233498;28;126634;-68
2021/05/23 02:14:16;;;;;;;;;4.00;4.00;;;;;16.59;46.23;98445.38;6235785;27;123985;-68
2021/05/23 02:17:18;;;;;;;;;3.00;3.00;;;;;16.62;46.33;98445.66;6233616;27;126532;-68
2021/05/23 02:20:23;;;;;;;;;3.00;3.00;;;;;16.63;46.20;98450.00;6236469;27;125156;-68
2021/05/23 02:23:26;;;;;;;;;3.00;3.00;;;;;16.67;46.40;98442.13;6218246;28;123295;-68
2021/05/23 02:26:29;;;;;;;;;5.00;4.00;;;;;16.68;46.24;98439.13;6228050;27;127075;-68
2021/05/23 02:29:33;;;;;;;;;4.00;4.00;;;;;16.71;46.31;98437.78;6211561;28;126519;-68
2021/05/23 02:32:36;;;;;;;;;3.00;3.00;;;;;16.71;46.17;98444.03;6211499;28;123992;-68
2021/05/23 02:35:41;;;;;;;;;4.00;3.00;;;;;16.72;46.13;98440.22;6210095;28;124259;-68
2021/05/23 02:38:43;;;;;;;;;3.00;2.80;;;;;16.68;46.15;98436.41;6221533;28;125339;-68
2021/05/23 02:41:47;;;;;;;;;3.00;3.00;;;;;16.66;46.02;98435.88;6211294;28;125642;-68
2021/05/23 02:44:50;;;;;;;;;3.00;3.00;;;;;16.63;46.06;98432.88;6209286;28;126224;-68
2021/05/23 02:47:53;;;;;;;;;3.25;3.00;;;;;16.68;45.87;98438.31;6211472;28;125250;-68
2021/05/23 02:50:56;;;;;;;;;3.00;3.00;;;;;16.66;45.85;98445.94;6211162;28;126335;-68
2021/05/23 02:53:59;;;;;;;;;3.00;3.00;;;;;16.65;45.74;98453.28;6211370;28;126612;-68
2021/05/23 02:57:02;;;;;;;;;4.00;4.00;;;;;16.67;45.55;98447.56;6220905;28;126182;-68
2021/05/23 03:00:08;;;;;;;;;4.00;3.00;;;;;16.72;45.99;98442.13;6210748;28;125113;-68
2021/05/23 03:03:13;;;;;;;;;2.00;2.00;;;;;16.73;45.73;98451.91;6223910;28;124921;-68
2021/05/23 03:06:16;;;;;;;;;3.00;3.00;;;;;16.82;45.66;98467.44;6210466;28;125854;-68
2021/05/23 03:09:18;;;;;;;;;2.00;2.00;;;;;16.67;45.52;98448.38;6210742;28;126126;-68
2021/05/23 03:12:22;;;;;;;;;2.75;2.75;;;;;16.88;45.50;98469.09;6210509;28;126576;-68
2021/05/23 03:15:27;;;;;;;;;2.00;2.00;;;;;16.97;45.59;98469.34;6210787;28;126482;-68
2021/05/23 03:18:30;;;;;;;;;2.00;2.00;;;;;16.99;45.44;98485.41;6211825;28;123972;-68
2021/05/23 03:21:33;;;;;;;;;2.75;2.75;;;;;17.01;45.22;98477.78;6210754;28;126475;-68
2021/05/23 03:24:36;;;;;;;;;3.00;2.00;;;;;17.09;44.81;98483.50;6211789;28;126352;-68
2021/05/23 03:27:39;;;;;;;;;2.80;2.80;;;;;17.01;44.91;98475.06;6211727;28;126581;-68
2021/05/23 03:30:43;;;;;;;;;4.00;3.00;;;;;17.20;44.67;98492.50;6210525;28;126501;-68
2021/05/23 03:33:46;;;;;;;;;3.80;3.20;;;;;17.30;44.63;98490.56;6210385;28;125039;-68
2021/05/23 03:36:49;;;;;;;;;3.75;3.75;;;;;17.37;44.42;98495.72;6212275;27;124109;-68
2021/05/23 03:39:52;;;;;;;;;3.00;2.80;;;;;17.51;44.46;98494.06;6211878;28;126216;-67
2021/05/23 03:42:55;;;;;;;;;3.60;3.00;;;;;17.51;44.21;98501.41;6230768;28;126150;-67
2021/05/23 03:45:58;;;;;;;;;4.00;4.00;;;;;17.56;44.14;98494.06;6211084;28;124840;-67
2021/05/23 03:49:01;;;;;;;;;3.00;3.00;;;;;17.66;44.11;98493.25;6210341;28;126294;-67
2021/05/23 03:52:04;;;;;;;;;4.00;3.00;;;;;17.76;43.96;98485.03;6210223;28;125107;-67
2021/05/23 03:55:08;;;;;;;;;3.80;3.80;;;;;17.84;43.54;98483.66;6236358;27;125333;-68
2021/05/23 03:58:12;;;;;;;;;3.00;2.50;;;;;18.00;43.88;98482.47;6203766;28;122769;-68
2021/05/23 04:01:15;;;;;;;;;3.00;3.00;;;;;18.12;44.33;98480.25;6209665;28;124849;-68
2021/05/23 04:04:20;;;;;;;;;3.00;3.00;;;;;18.18;44.69;98473.66;6210863;28;126200;-68
2021/05/23 04:07:26;;;;;;;;;4.00;4.00;;;;;18.24;44.29;98474.44;6216113;28;124882;-68
2021/05/23 04:10:32;;;;;;;;;3.40;3.40;;;;;18.25;43.92;98474.19;6220784;28;125365;-68
2021/05/23 04:13:39;;;;;;;;;2.20;2.20;;;;;18.40;44.60;98481.47;6219186;28;123712;-68
2021/05/23 04:16:41;;;;;;;;;2.40;2.40;;;;;18.45;44.55;98484.16;6225897;28;125995;-68
2021/05/23 04:19:44;;;;;;;;;4.00;4.00;;;;;18.49;44.38;98485.22;6222282;28;126237;-68
2021/05/23 04:22:48;;;;;;;;;3.00;3.00;;;;;18.49;44.34;98475.13;6222797;27;124574;-68
2021/05/23 04:25:51;;;;;;;;;2.40;2.40;;;;;18.64;45.33;98487.06;6219301;28;126060;-68
2021/05/23 04:28:54;;;;;;;;;2.00;2.00;;;;;18.74;44.99;98487.81;6220339;28;125063;-68
2021/05/23 04:31:59;;;;;;;;;3.80;3.00;;;;;18.83;44.94;98488.03;6221359;28;126312;-68
2021/05/23 04:35:02;;;;;;;;;4.40;4.00;;;;;18.71;45.23;98460.28;6221863;28;124555;-68
2021/05/23 04:38:05;;;;;;;;;2.00;2.00;;;;;19.06;44.43;98483.75;6234731;28;125273;-68
2021/05/23 04:41:11;;;;;;;;;2.00;2.00;;;;;19.18;45.48;98487.72;6215764;28;126596;-69
2021/05/23 04:44:15;;;;;;;;;2.00;2.00;;;;;19.33;46.90;98487.59;6235947;28;125027;-68
2021/05/23 04:47:17;;;;;;;;;2.00;2.00;;;;;19.33;46.12;98484.03;6229564;27;124866;-68
2021/05/23 04:50:20;;;;;;;;;3.00;3.00;;;;;19.38;46.05;98484.00;6226073;28;124713;-68
2021/05/23 04:53:23;;;;;;;;;4.00;4.00;;;;;19.45;46.18;98488.03;6237713;28;126669;-68
2021/05/23 04:56:26;;;;;;;;;3.40;3.40;;;;;19.51;45.95;98493.44;6237609;27;126074;-68
2021/05/23 04:59:33;;;;;;;;;3.00;3.00;;;;;19.62;46.07;98492.25;6213303;28;126105;-68
2021/05/23 05:02:37;;;;;;;;;4.00;3.00;;;;;19.71;46.13;98490.50;6212817;28;125425;-68
2021/05/23 05:05:39;;;;;;;;;3.00;3.00;;;;;19.81;46.75;98490.41;6236390;28;125060;-68
2021/05/23 05:08:42;;;;;;;;;5.00;5.00;;;;;19.89;46.16;98492.47;6212813;28;127614;-68
2021/05/23 05:11:45;;;;;;;;;3.00;3.00;;;;;20.01;46.25;98495.63;6212174;28;126613;-68
2021/05/23 05:14:48;;;;;;;;;3.00;3.00;;;;;20.08;45.19;98495.28;6213050;28;126329;-68
2021/05/23 05:17:51;;;;;;;;;2.60;2.20;;;;;20.16;44.73;98492.69;6231214;28;125120;-68
2021/05/23 05:20:54;;;;;;;;;2.00;2.00;;;;;20.26;42.46;98483.53;6239338;27;127099;-68
2021/05/23 05:23:57;;;;;;;;;2.20;2.20;;;;;20.35;44.77;98490.03;6221817;27;126233;-68
2021/05/23 05:27:00;;;;;;;;;2.80;2.00;;;;;20.49;44.46;98499.13;6223813;28;126073;-68
2021/05/23 05:30:06;;;;;;;;;2.00;2.00;;;;;20.52;42.32;98489.53;6237745;28;125794;-67
2021/05/23 05:33:08;;;;;;;;;3.60;2.00;;;;;20.64;41.20;98490.69;6239508;27;124735;-67
2021/05/23 05:36:11;;;;;;;;;1.40;1.40;;;;;20.69;40.13;98496.09;6236278;27;126216;-67
2021/05/23 05:39:14;;;;;;;;;2.00;2.00;;;;;20.71;40.72;98495.81;6215543;28;125777;-69
2021/05/23 05:42:17;;;;;;;;;2.00;2.00;;;;;20.79;39.64;98486.91;6223313;28;126170;-68
2021/05/23 05:45:20;;;;;;;;;3.00;2.40;;;;;20.87;40.43;98491.69;6236136;27;122976;-68
2021/05/23 05:48:23;;;;;;;;;2.00;2.00;;;;;20.92;40.81;98494.34;6216832;28;125222;-68
2021/05/23 05:51:26;;;;;;;;;2.00;2.00;;;;;21.02;40.70;98487.91;6212934;28;125719;-68
2021/05/23 05:54:28;;;;;;;;;3.00;2.00;;;;;21.15;40.40;98495.41;6229341;28;124930;-68
2021/05/23 05:57:31;;;;;;;;;2.00;1.00;;;;;21.21;39.15;98499.66;6227094;27;125929;-68
2021/05/23 06:00:36;;;;;;;;;3.00;2.00;;;;;21.28;39.97;98491.88;6216500;28;125048;-68
2021/05/23 06:03:38;;;;;;;;;1.00;1.00;;;;;21.33;38.29;98499.22;6212697;28;125843;-68
2021/05/23 06:06:41;;;;;;;;;2.00;2.00;;;;;21.47;38.80;98497.31;6224896;28;126282;-68
2021/05/23 06:09:51;;;;;;;;;3.00;3.00;;;;;21.65;39.29;98501.09;6217198;28;125865;-68
2021/05/23 06:12:53;;;;;;;;;2.60;2.00;;;;;21.84;38.54;98491.69;6222848;28;125404;-68
2021/05/23 06:15:58;;;;;;;;;2.00;2.00;;;;;22.01;38.26;98494.63;6224680;28;126318;-68
2021/05/23 06:19:01;;;;;;;;;2.25;2.25;;;;;22.18;38.44;98504.19;6221844;27;126490;-67
2021/05/23 06:22:03;;;;;;;;;2.00;1.20;;;;;22.42;37.20;98513.81;6232572;28;125030;-68
2021/05/23 06:25:08;;;;;;;;;2.75;2.25;;;;;22.60;36.64;98494.75;6219967;28;124400;-68
2021/05/23 06:28:10;;;;;;;;;2.00;2.00;;;;;22.70;36.70;98498.13;6217480;28;123460;-68
2021/05/23 06:31:14;;;;;;;;;3.00;2.60;;;;;22.82;35.68;98497.56;6212115;28;126095;-68
2021/05/23 06:34:16;;;;;;;;;2.40;2.00;;;;;22.83;35.59;98497.25;6213194;28;126937;-68
2021/05/23 06:37:19;;;;;;;;;2.00;2.00;;;;;22.89;35.85;98493.25;6220501;28;126022;-68
2021/05/23 06:40:22;;;;;;;;;2.00;2.00;;;;;23.00;36.07;98493.00;6228824;28;124463;-68
2021/05/23 06:43:24;;;;;;;;;2.00;1.00;;;;;23.00;36.21;98498.50;6225370;28;126194;-68
2021/05/23 06:46:28;;;;;;;;;2.00;2.00;;;;;23.13;35.85;98497.63;6222456;27;125305;-68
2021/05/23 06:49:31;;;;;;;;;2.00;2.00;;;;;23.14;35.92;98499.25;6223665;27;124111;-68
2021/05/23 06:52:34;;;;;;;;;2.00;2.00;;;;;23.06;35.98;98475.28;6221147;28;126880;-68
2021/05/23 06:55:36;;;;;;;;;2.00;2.00;;;;;23.45;36.74;98502.09;6223286;28;126867;-68
2021/05/23 06:58:39;;;;;;;;;2.00;2.00;;;;;23.45;35.42;98504.84;6221794;27;125559;-68
2021/05/23 07:01:46;;;;;;;;;3.00;3.00;;;;;23.51;35.27;98507.13;6219076;27;126050;-69
2021/05/23 07:04:48;;;;;;;;;2.00;2.00;;;;;23.61;34.19;98506.84;6220827;27;124669;-68
2021/05/23 07:07:55;;;;;;;;;3.00;2.25;;;;;23.78;34.13;98513.59;6219735;28;124726;-68
2021/05/23 07:10:58;;;;;;;;;2.00;2.00;;;;;23.81;34.18;98508.25;6220283;28;126881;-68
2021/05/23 07:14:01;;;;;;;;;2.00;2.00;;;;;23.64;34.15;98480.66;6220582;27;126203;-67
2021/05/23 07:17:04;;;;;;;;;3.00;3.00;;;;;23.94;34.11;98507.34;6222482;27;126364;-67
2021/05/23 07:20:08;;;;;;;;;2.00;2.00;;;;;23.99;33.91;98520.16;6219643;28;124328;-67
2021/05/23 07:23:11;;;;;;;;;3.00;2.00;;;;;24.14;32.92;98505.97;6219655;28;124272;-67
2021/05/23 07:26:13;;;;;;;;;2.00;2.00;;;;;24.38;32.66;98509.13;6220731;27;125874;-66
2021/05/23 07:29:16;;;;;;;;;3.00;2.00;;;;;24.36;32.29;98513.31;6219575;28;126530;-66
2021/05/23 07:32:19;;;;;;;;;3.00;2.75;;;;;24.56;32.03;98510.78;6219815;28;126322;-67
2021/05/23 07:35:22;;;;;;;;;2.00;2.00;;;;;24.73;31.79;98515.47;6219752;27;124917;-67
2021/05/23 07:38:25;;;;;;;;;3.00;3.00;;;;;24.75;31.98;98517.94;6221098;28;126631;-66
2021/05/23 07:41:28;;;;;;;;;2.00;2.00;;;;;24.84;31.79;98530.56;6235052;27;124886;-66
2021/05/23 07:44:31;;;;;;;;;3.00;3.00;;;;;24.99;31.43;98513.59;6235119;27;124079;-68
2021/05/23 07:47:34;;;;;;;;;4.00;3.00;;;;;24.74;32.69;98513.53;6217263;27;126602;-68
2021/05/23 07:50:37;;;;;;;;;1.50;1.50;;;;;24.91;32.24;98516.34;6211500;28;123735;-68
2021/05/23 07:53:40;;;;;;;;;2.33;2.33;;;;;24.95;31.85;98507.09;6222787;28;126206;-68
2021/05/23 07:56:44;;;;;;;;;3.00;3.00;;;;;25.11;31.34;98506.63;6223023;28;126141;-68
2021/05/23 07:59:47;;;;;;;;;2.40;2.40;;;;;25.33;31.50;98507.22;6218899;28;123355;-67
2021/05/23 08:02:51;;;;;;;;;2.00;2.00;;;;;25.42;31.15;98510.78;6222379;28;126359;-68
2021/05/23 08:05:54;;;;;;;;;2.00;2.00;;;;;25.57;30.28;98512.22;6209774;28;124737;-67
2021/05/23 08:08:57;;;;;;;;;2.00;1.00;;;;;25.67;29.52;98511.88;6209689;28;126571;-68
2021/05/23 08:11:59;;;;;;;;;2.00;2.00;;;;;25.51;29.08;98480.38;6220756;28;126431;-68
2021/05/23 08:15:03;;;;;;;;;2.00;2.00;;;;;26.02;30.30;98509.78;6234819;27;126016;-68
2021/05/23 08:18:08;;;;;;;;;3.00;2.00;;;;;26.16;29.21;98510.38;6220746;27;125516;-68
2021/05/23 08:21:10;;;;;;;;;1.00;1.00;;;;;26.09;29.37;98503.75;6238537;27;124781;-68
2021/05/23 08:24:14;;;;;;;;;2.40;2.40;;;;;26.26;28.24;98503.69;6238263;27;126759;-67
2021/05/23 08:27:16;;;;;;;;;1.00;1.00;;;;;26.41;28.59;98500.34;6228689;27;126257;-68
2021/05/23 08:30:20;;;;;;;;;1.00;1.00;;;;;26.23;27.43;98490.56;6213560;28;126529;-68
2021/05/23 08:33:24;;;;;;;;;3.00;2.40;;;;;26.48;27.28;98506.16;6217248;28;126305;-68
2021/05/23 08:36:27;;;;;;;;;2.00;2.00;;;;;26.35;26.85;98495.34;6224680;28;126061;-68
2021/05/23 08:39:30;;;;;;;;;2.00;1.00;;;;;25.70;27.45;98502.94;6225733;27;126704;-68
2021/05/23 08:42:34;;;;;;;;;1.00;1.00;;;;;25.82;27.09;98496.72;6216645;28;125944;-67
2021/05/23 08:45:37;;;;;;;;;3.00;2.40;;;;;26.04;27.59;98490.13;6223605;28;125336;-67
2021/05/23 08:48:42;;;;;;;;;2.00;1.60;;;;;26.34;27.54;98489.00;6224227;28;125016;-68
2021/05/23 08:51:45;;;;;;;;;2.00;2.00;;;;;26.65;25.42;98492.22;6223506;27;124337;-68
2021/05/23 08:54:49;;;;;;;;;2.50;2.50;;;;;26.95;23.91;98487.44;6233738;27;124850;-68
2021/05/23 08:57:55;;;;;;;;;3.00;2.60;;;;;27.13;23.90;98490.88;6229414;28;126714;-68
2021/05/23 09:00:58;;;;;;;;;1.00;1.00;;;;;27.11;22.48;98488.44;6226640;28;125613;-68
2021/05/23 09:04:05;;;;;;;;;1.60;1.60;;;;;27.22;22.34;98491.59;6236413;27;126583;-68
2021/05/23 09:07:08;;;;;;;;;1.00;1.00;;;;;27.37;20.51;98490.13;6238811;27;125934;-67
2021/05/23 09:10:23;;;;;;;;;1.00;1.00;;;;;27.52;22.48;98493.09;6235900;27;126925;-68
2021/05/23 09:13:29;;;;;;;;;1.00;1.00;;;;;27.49;22.20;98502.09;6234221;28;125370;-68
2021/05/23 09:16:37;;;;;;;;;2.00;2.00;;;;;27.36;22.89;98491.31;6237162;28;125905;-68
2021/05/23 09:19:41;;;;;;;;;2.00;2.00;;;;;27.36;23.25;98500.44;6239213;27;125763;-67
2021/05/23 09:22:50;;;;;;;;;2.00;2.00;;;;;27.33;24.75;98498.31;6238412;27;125882;-67
2021/05/23 09:25:53;;;;;;;;;2.00;2.00;;;;;27.29;23.02;98489.09;6238149;27;124594;-68
2021/05/23 09:29:04;;;;;;;;;1.00;1.00;;;;;27.20;24.19;98493.91;6236474;28;126274;-68
2021/05/23 09:32:15;;;;;;;;;2.00;2.00;;;;;27.22;22.11;98493.56;6220308;28;124539;-68
2021/05/23 09:35:22;;;;;;;;;1.00;1.00;;;;;27.15;21.21;98492.16;6237030;28;124084;-68
2021/05/23 09:38:25;;;;;;;;;2.00;2.00;;;;;27.12;20.84;98492.03;6238563;27;125363;-69
2021/05/23 09:41:31;;;;;;;;;1.50;1.00;;;;;27.00;20.07;98497.50;6215971;27;124996;-68
2021/05/23 09:44:34;;;;;;;;;2.00;2.00;;;;;26.87;20.81;98482.00;6236783;28;124788;-67
2021/05/23 09:47:37;;;;;;;;;1.40;1.00;;;;;26.89;23.06;98488.00;6238464;27;126242;-67
2021/05/23 09:50:42;;;;;;;;;1.00;1.00;;;;;26.83;23.37;98498.41;6236224;28;124784;-67
2021/05/23 09:53:58;;;;;;;;;1.00;1.00;;;;;26.96;23.86;98471.66;6238506;27;124948;-68
2021/05/23 09:57:12;;;;;;;;;1.00;1.00;;;;;27.46;23.47;98500.00;6237065;28;126165;-68
2021/05/23 10:00:16;;;;;;;;;1.40;1.40;;;;;27.84;22.97;98502.53;6231633;27;124395;-68
2021/05/23 10:03:23;;;;;;;;;0.00;0.00;;;;;28.18;22.50;98506.03;6226458;27;126640;-68
2021/05/23 10:06:28;;;;;;;;;1.25;1.25;;;;;28.34;21.84;98495.88;6223120;28;125945;-68
2021/05/23 10:09:31;;;;;;;;;1.00;1.00;;;;;28.61;22.26;98497.91;6221263;28;125825;-67
2021/05/23 10:12:34;;;;;;;;;2.00;1.00;;;;;28.76;22.68;98499.97;6223938;27;125211;-67
2021/05/23 10:15:39;;;;;;;;;1.00;1.00;;;;;28.71;22.84;98502.16;6231961;28;125013;-67
2021/05/23 10:18:43;;;;;;;;;1.00;1.00;;;;;28.85;23.23;98508.16;6225650;28;125979;-67
2021/05/23 10:21:48;;;;;;;;;1.00;1.00;;;;;28.82;21.63;98509.69;6223883;28;124243;-67
2021/05/23 10:24:53;;;;;;;;;1.00;1.00;;;;;28.53;21.27;98512.72;6215107;28;126035;-67
2021/05/23 10:28:00;;;;;;;;;1.00;1.00;;;;;28.22;21.72;98507.75;6212910;28;126015;-68
2021/05/23 10:31:03;;;;;;;;;2.40;2.40;;;;;28.12;21.34;98518.50;6212126;28;126765;-67
2021/05/23 10:34:06;;;;;;;;;2.00;1.25;;;;;28.00;19.53;98514.53;6214724;28;125009;-67
2021/05/23 10:37:09;;;;;;;;;1.00;1.00;;;;;28.02;19.25;98520.53;6225786;27;126599;-67
2021/05/23 10:40:22;;;;;;;;;2.40;2.00;;;;;28.33;20.15;98519.19;6233071;27;126293;-67
2021/05/23 10:43:28;;;;;;;;;2.00;1.00;;;;;28.45;18.83;98516.41;6218207;28;126241;-67
2021/05/23 10:46:31;;;;;;;;;2.00;2.00;;;;;28.62;19.42;98513.41;6210991;28;127227;-68
2021/05/23 10:49:33;;;;;;;;;2.00;1.00;;;;;28.55;20.17;98515.94;6222664;28;126346;-68
2021/05/23 10:52:40;;;;;;;;;2.00;1.00;;;;;28.61;22.27;98514.53;6235079;27;125422;-66
2021/05/23 10:55:50;;;;;;;;;1.25;1.25;;;;;28.62;22.25;98518.13;6235809;27;125768;-68
2021/05/23 10:58:56;;;;;;;;;1.80;1.80;;;;;28.57;22.41;98521.94;6222728;27;125974;-69
2021/05/23 11:01:59;;;;;;;;;1.00;1.00;;;;;28.56;21.44;98519.50;6209746;27;125406;-69
2021/05/23 11:05:07;;;;;;;;;2.00;2.00;;;;;28.31;20.24;98522.31;6224427;28;126712;-68
2021/05/23 11:08:12;;;;;;;;;2.00;2.00;;;;;28.11;20.69;98516.84;6220090;27;126034;-72
2021/05/23 11:11:20;;;;;;;;;1.00;1.00;;;;;27.94;20.74;98504.03;6220071;28;125153;-70
2021/05/23 11:14:24;;;;;;;;;2.00;2.00;;;;;27.98;21.33;98521.59;6216968;28;124628;-67
2021/05/23 11:17:28;;;;;;;;;2.20;2.20;;;;;27.89;21.70;98526.41;6216756;28;97667;-70
2021/05/23 11:20:31;;;;;;;;;5.00;4.00;;;;;27.60;22.26;98521.06;6211523;27;126298;-69
2021/05/23 11:23:45;;;;;;;;;4.00;3.00;;;;;27.50;22.77;98527.84;6201547;28;125665;-69
2021/05/23 11:26:48;;;;;;;;;3.00;2.40;;;;;27.14;22.69;98526.50;6214120;27;124901;-68
2021/05/23 11:29:53;;;;;;;;;2.00;2.00;;;;;26.77;23.15;98541.25;6225757;28;125133;-69
2021/05/23 11:33:07;;;;;;;;;2.00;2.00;;;;;26.49;23.34;98540.94;6213467;28;123864;-69
2021/05/23 11:36:18;;;;;;;;;1.60;1.60;;;;;26.18;23.39;98540.44;6200694;28;126425;-66
2021/05/23 11:39:21;;;;;;;;;2.75;2.00;;;;;25.85;24.04;98543.81;6213193;28;126848;-67
2021/05/23 11:42:24;;;;;;;;;2.00;2.00;;;;;25.64;24.30;98544.84;6211741;28;125073;-68
2021/05/23 11:45:27;;;;;;;;;2.00;1.00;;;;;25.53;24.54;98529.75;6228812;28;125114;-68
2021/05/23 11:48:35;;;;;;;;;1.00;0.00;;;;;25.48;23.36;98533.50;6224920;27;125782;-68
2021/05/23 11:51:38;;;;;;;;;1.00;1.00;;;;;25.43;23.64;98542.75;6223419;28;124535;-67
2021/05/23 11:54:41;;;;;;;;;0.00;0.00;;;;;25.30;22.95;98532.72;6222297;28;126779;-68
2021/05/23 11:57:49;;;;;;;;;1.00;1.00;;;;;25.16;22.05;98534.84;6219262;27;123920;-67
2021/05/23 12:00:52;;;;;;;;;2.00;2.00;;;;;25.16;22.63;98537.59;6214635;28;124194;-67
2021/05/23 12:03:57;;;;;;;;;2.00;1.60;;;;;25.25;22.94;98543.09;6229491;28;125314;-68
2021/05/23 12:07:00;;;;;;;;;1.60;1.00;;;;;25.29;23.04;98535.78;6232808;27;124981;-67
2021/05/23 12:10:05;;;;;;;;;1.00;1.00;;;;;25.29;22.89;98544.88;6222971;27;126193;-66
2021/05/23 12:13:08;;;;;;;;;2.00;2.00;;;;;25.35;23.35;98545.53;6231405;27;125718;-67
2021/05/23 12:16:13;;;;;;;;;2.00;2.00;;;;;25.36;23.50;98553.47;6230276;28;127247;-67
2021/05/23 12:19:15;;;;;;;;;1.60;1.60;;;;;25.42;24.41;98557.69;6225071;28;126511;-67
2021/05/23 12:22:21;;;;;;;;;2.00;2.00;;;;;25.32;25.16;98571.00;6232427;27;126241;-66
2021/05/23 12:25:25;;;;;;;;;1.40;1.00;;;;;24.89;26.33;98573.75;6230285;28;125902;-67
2021/05/23 12:28:35;;;;;;;;;2.00;2.00;;;;;24.58;27.59;98555.34;6228412;27;125667;-68
2021/05/23 12:31:38;;;;;;;;;0.60;0.60;;;;;24.48;27.65;98585.97;6228998;27;126252;-68
2021/05/23 12:34:42;;;;;;;;;1.00;1.00;;;;;24.26;28.90;98583.31;6218090;27;126315;-68
2021/05/23 12:37:51;;;;;;;;;2.60;2.00;;;;;24.17;29.10;98597.06;6235343;27;125082;-68
2021/05/23 12:40:58;;;;;;;;;1.00;1.00;;;;;23.96;32.02;98590.44;6227869;27;124983;-68
2021/05/23 12:44:01;;;;;;;;;3.00;2.00;;;;;23.57;33.73;98610.44;6227769;28;124881;-69
2021/05/23 12:47:12;;;;;;;;;2.00;2.00;;;;;22.90;35.33;98623.28;6223029;27;125917;-68
2021/05/23 12:50:16;;;;;;;;;2.50;2.00;;;;;22.86;35.60;98625.84;6224445;28;125023;-69
2021/05/23 12:53:23;;;;;;;;;1.80;1.80;;;;;22.65;36.19;98621.03;6203050;28;122949;-68
2021/05/23 12:56:30;;;;;;;;;1.00;1.00;;;;;22.52;36.66;98630.09;6233608;28;124464;-68
2021/05/23 12:59:38;;;;;;;;;3.00;3.00;;;;;22.16;36.68;98613.50;6224190;27;125995;-71
2021/05/23 13:02:41;;;;;;;;;2.00;2.00;;;;;22.20;37.26;98640.03;6226501;28;124535;-68
2021/05/23 13:05:56;;;;;;;;;2.40;2.40;;;;;22.04;38.02;98630.47;6227359;27;126366;-70
2021/05/23 13:09:00;;;;;;;;;2.75;2.00;;;;;21.89;37.46;98628.78;6221486;27;125815;-69
2021/05/23 13:12:07;;;;;;;;;2.00;2.00;;;;;21.94;37.80;98645.19;6233182;28;125401;-68
2021/05/23 13:15:10;;;;;;;;;3.00;3.00;;;;;21.97;38.41;98652.00;6238782;27;125228;-69
2021/05/23 13:18:13;;;;;;;;;3.00;2.00;;;;;22.03;38.65;98650.81;6237791;27;125443;-70
2021/05/23 13:21:36;;;;;;;;;2.60;2.60;;;;;22.03;39.20;98664.53;6225520;28;126053;-68
2021/05/23 13:24:44;;;;;;;;;2.00;2.00;;;;;21.87;39.45;98652.97;6224967;28;126941;-68
2021/05/23 13:27:49;;;;;;;;;3.00;3.00;;;;;21.83;38.99;98656.63;6226579;27;125932;-68
2021/05/23 13:30:52;;;;;;;;;2.00;2.00;;;;;21.78;38.32;98654.78;6234946;28;122987;-69
2021/05/23 13:33:57;;;;;;;;;1.00;1.00;;;;;21.55;37.35;98645.53;6238879;27;124126;-69
2021/05/23 13:36:59;;;;;;;;;1.20;1.00;;;;;21.54;37.28;98659.56;6221453;27;124063;-70
2021/05/23 13:40:03;;;;;;;;;2.00;2.00;;;;;21.62;37.41;98661.63;6229828;28;126503;-67
2021/05/23 13:43:08;;;;;;;;;2.00;1.00;;;;;21.48;37.35;98655.28;6220722;27;126207;-67
2021/05/23 13:46:10;;;;;;;;;1.00;1.00;;;;;21.47;37.65;98659.94;6218100;28;126027;-66
2021/05/23 13:49:15;;;;;;;;;1.00;1.00;;;;;21.38;37.41;98661.72;6220669;28;124154;-68
2021/05/23 13:52:18;;;;;;;;;1.00;1.00;;;;;21.22;37.25;98671.28;6228650;28;125229;-69
2021/05/23 13:55:21;;;;;;;;;2.00;1.00;;;;;21.05;37.53;98670.97;6218378;27;126180;-71
2021/05/23 13:58:25;;;;;;;;;2.00;2.00;;;;;20.97;38.57;98686.13;6218870;28;125352;-69
2021/05/23 14:01:29;;;;;;;;;0.60;0.60;;;;;20.67;39.77;98687.31;6220011;28;126164;-69
2021/05/23 14:04:32;;;;;;;;;3.50;3.50;;;;;20.59;39.82;98687.16;6222519;27;126165;-68
2021/05/23 14:07:35;;;;;;;;;4.00;3.40;;;;;20.58;40.60;98697.28;6221520;28;126316;-70
2021/05/23 14:10:38;;;;;;;;;2.00;2.00;;;;;20.57;41.36;98705.81;6224539;28;126345;-68
2021/05/23 14:13:42;;;;;;;;;3.00;3.00;;;;;20.69;41.13;98709.75;6219099;28;126659;-69
2021/05/23 14:16:44;;;;;;;;;2.00;1.60;;;;;20.75;41.00;98714.09;6223879;27;126536;-69